createdAt,value
2018-07-13T00:00:35.293Z,8.30
2018-07-13T00:03:04.853Z,9.63
2018-07-13T00:05:34.629Z,8.57
2018-07-13T00:08:03.955Z,9.20
2018-07-13T00:10:33.449Z,9.33
2018-07-13T00:13:03.016Z,8.50
2018-07-13T00:15:33.138Z,8.27
2018-07-13T00:18:02.995Z,8.10
2018-07-13T00:20:33.414Z,8.33
2018-07-13T00:23:04.074Z,8.53
2018-07-13T00:25:34.449Z,8.57
2018-07-13T00:28:04.528Z,10.07
2018-07-13T00:30:34.252Z,9.83
2018-07-13T00:33:03.869Z,9.03
2018-07-13T00:35:34.234Z,9.23
2018-07-13T00:38:03.709Z,8.90
2018-07-13T00:40:34.436Z,10.23
2018-07-13T00:43:05.152Z,11.37
2018-07-13T00:45:35.221Z,9.43
2018-07-13T00:48:05.212Z,8.73
2018-07-13T00:50:34.809Z,9.67
2018-07-13T00:53:04.477Z,9.13
2018-07-13T00:55:34.002Z,9.23
2018-07-13T00:58:03.603Z,9.20
2018-07-13T01:00:33.845Z,8.93
2018-07-13T01:03:04.684Z,8.50
2018-07-13T01:05:35.280Z,9.47
2018-07-13T01:08:05.470Z,11.20
2018-07-13T01:10:35.053Z,9.80
2018-07-13T01:13:05.588Z,10.27
2018-07-13T01:15:35.480Z,9.70
2018-07-13T01:18:05.729Z,9.93
2018-07-13T01:20:35.377Z,11.13
2018-07-13T01:23:05.745Z,11.07
2018-07-13T01:25:36.017Z,11.50
2018-07-13T01:28:06.095Z,11.20
2018-07-13T01:30:36.086Z,12.20
2018-07-13T01:33:06.164Z,11.43
2018-07-13T01:35:36.530Z,10.97
2018-07-13T01:38:06.577Z,11.80
2018-07-13T01:40:36.805Z,11.43
2018-07-13T01:43:06.388Z,11.40
2018-07-13T01:45:37.135Z,13.57
2018-07-13T01:48:08.101Z,14.07
2018-07-13T01:50:38.171Z,14.40
2018-07-13T01:53:08.872Z,13.40
2018-07-13T01:55:38.701Z,14.67
2018-07-13T01:58:08.649Z,13.87
2018-07-13T02:00:39.321Z,14.60
2018-07-13T02:03:08.784Z,14.83
2018-07-13T02:05:38.449Z,15.03
2018-07-13T02:08:08.285Z,14.87
2018-07-13T02:10:38.232Z,14.87
2018-07-13T02:13:08.765Z,15.13
2018-07-13T02:15:38.693Z,16.23
2018-07-13T02:18:09.317Z,16.60
2018-07-13T02:20:39.671Z,15.70
2018-07-13T02:23:09.548Z,16.97
2018-07-13T02:25:39.884Z,15.27
2018-07-13T02:28:09.453Z,17.13
2018-07-13T02:30:39.705Z,19.10
2018-07-13T02:33:09.609Z,19.70
2018-07-13T02:35:40.050Z,16.23
2018-07-13T02:38:10.168Z,16.73
2018-07-13T02:40:39.822Z,16.07
2018-07-13T02:43:09.561Z,16.33
2018-07-13T02:45:40.014Z,16.43
2018-07-13T02:48:09.737Z,18.47
2018-07-13T02:50:40.121Z,16.87
2018-07-13T02:53:10.165Z,19.13
2018-07-13T02:55:39.760Z,20.00
2018-07-13T02:58:09.677Z,18.10
2018-07-13T03:00:40.552Z,21.13
2018-07-13T03:03:11.234Z,17.33
2018-07-13T03:05:41.474Z,19.57
2018-07-13T03:08:11.158Z,20.53
2018-07-13T03:10:40.777Z,18.37
2018-07-13T03:13:11.512Z,20.47
2018-07-13T03:15:41.826Z,17.73
2018-07-13T03:18:11.669Z,18.40
2018-07-13T03:20:41.681Z,17.67
2018-07-13T03:23:12.221Z,16.80
2018-07-13T03:25:42.337Z,16.30
2018-07-13T03:28:12.316Z,17.50
2018-07-13T03:30:41.929Z,15.97
2018-07-13T03:33:11.869Z,17.77
2018-07-13T03:35:41.819Z,17.47
2018-07-13T03:38:11.885Z,17.70
2018-07-13T03:40:41.958Z,19.73
2018-07-13T03:43:11.644Z,25.57
2018-07-13T03:45:42.480Z,25.60
2018-07-13T03:48:11.947Z,27.17
2018-07-13T03:50:41.640Z,23.47
2018-07-13T03:53:11.684Z,23.37
2018-07-13T03:55:41.436Z,24.17
2018-07-13T03:58:11.202Z,23.57
2018-07-13T04:00:40.503Z,21.37
2018-07-13T04:03:09.768Z,20.33
2018-07-13T04:05:38.794Z,21.67
2018-07-13T04:08:08.404Z,23.17
2018-07-13T04:10:37.734Z,22.77
2018-07-13T04:13:06.680Z,22.90
2018-07-13T04:15:35.731Z,22.83
2018-07-13T04:18:05.538Z,20.43
2018-07-13T04:20:34.954Z,20.90
2018-07-13T04:23:03.898Z,20.07
2018-07-13T04:25:33.814Z,22.13
2018-07-13T04:28:03.728Z,22.63
2018-07-13T04:30:33.337Z,19.33
2018-07-13T04:33:02.638Z,21.13
2018-07-13T04:35:31.926Z,20.47
2018-07-13T04:38:01.282Z,17.77
2018-07-13T04:40:30.234Z,17.87
2018-07-13T04:42:59.196Z,19.47
2018-07-13T04:45:28.188Z,20.57
2018-07-13T04:47:57.164Z,18.87
2018-07-13T04:50:26.499Z,18.47
2018-07-13T04:53:15.441Z,17.27
2018-07-13T04:55:56.502Z,18.43
2018-07-13T04:58:34.124Z,19.03
2018-07-13T05:01:17.743Z,19.07
2018-07-13T05:04:00.301Z,18.43
2018-07-13T05:06:32.894Z,18.40
2018-07-13T05:09:04.700Z,17.10
2018-07-13T05:11:40.102Z,18.57
2018-07-13T05:14:25.471Z,16.70
2018-07-13T05:17:05.848Z,18.07
2018-07-13T05:19:40.700Z,18.15
2018-07-13T05:22:14.388Z,17.82
2018-07-13T05:24:55.100Z,17.07
2018-07-13T05:27:28.972Z,17.85
2018-07-13T05:29:59.284Z,16.87
2018-07-13T05:32:29.260Z,15.07
2018-07-13T05:34:59.047Z,14.87
2018-07-13T05:37:29.278Z,13.30
2018-07-13T05:39:59.006Z,11.33
2018-07-13T05:42:28.617Z,10.88
2018-07-13T05:44:57.927Z,10.28
2018-07-13T05:47:27.219Z,11.33
2018-07-13T05:49:56.512Z,10.08
2018-07-13T05:52:26.272Z,9.15
2018-07-13T05:54:55.731Z,7.87
2018-07-13T05:57:25.064Z,9.85
2018-07-13T05:59:54.331Z,10.40
2018-07-13T06:02:24.561Z,11.75
2018-07-13T06:04:53.862Z,12.78
2018-07-13T06:07:23.771Z,11.05
2018-07-13T06:09:53.057Z,11.15
2018-07-13T06:12:22.824Z,12.03
2018-07-13T06:14:51.989Z,10.82
2018-07-13T06:17:21.910Z,9.93
2018-07-13T06:19:51.208Z,9.95
2018-07-13T06:22:20.495Z,9.35
2018-07-13T06:24:49.796Z,8.95
2018-07-13T06:27:19.099Z,9.13
2018-07-13T06:29:49.009Z,10.68
2018-07-13T06:32:18.292Z,9.18
2018-07-13T06:34:47.587Z,8.60
2018-07-13T06:37:16.937Z,8.85
2018-07-13T06:39:46.212Z,8.78
2018-07-13T06:42:16.126Z,9.93
2018-07-13T06:44:45.165Z,8.25
2018-07-13T06:47:14.134Z,8.10
2018-07-13T06:49:43.181Z,9.10
2018-07-13T06:52:12.384Z,8.75
2018-07-13T06:54:41.910Z,7.97
2018-07-13T06:57:12.855Z,8.48
2018-07-13T06:59:42.764Z,8.73
2018-07-13T07:02:16.673Z,9.28
2018-07-13T07:04:45.680Z,8.35
2018-07-13T07:07:16.199Z,7.78
2018-07-13T07:09:47.348Z,9.00
2018-07-13T07:12:23.090Z,8.03
2018-07-13T07:14:53.007Z,8.48
2018-07-13T07:17:21.980Z,9.58
2018-07-13T07:19:51.298Z,8.83
2018-07-13T07:22:21.218Z,9.55
2018-07-13T07:24:50.516Z,9.05
2018-07-13T07:27:19.821Z,9.40
2018-07-13T07:29:49.091Z,9.70
2018-07-13T07:32:19.032Z,8.93
2018-07-13T07:34:48.307Z,9.95
2018-07-13T07:37:17.632Z,9.10
2018-07-13T07:39:46.592Z,8.20
2018-07-13T07:42:16.071Z,8.43
2018-07-13T07:44:45.531Z,7.37
2018-07-13T07:47:14.514Z,7.33
2018-07-13T07:49:43.927Z,7.65
2018-07-13T07:52:13.106Z,8.98
2018-07-13T07:54:43.033Z,8.65
2018-07-13T07:57:12.760Z,7.53
2018-07-13T07:59:42.872Z,7.08
2018-07-13T08:02:12.181Z,7.42
2018-07-13T08:04:41.437Z,7.70
2018-07-13T08:07:11.439Z,6.83
2018-07-13T08:09:40.345Z,9.03
2018-07-13T08:12:09.813Z,8.10
2018-07-13T08:14:39.412Z,8.93
2018-07-13T08:17:08.564Z,7.85
2018-07-13T08:19:37.607Z,8.50
2018-07-13T08:22:39.447Z,8.08
2018-07-13T08:25:09.680Z,8.65
2018-07-13T08:27:41.885Z,7.03
2018-07-13T08:30:17.087Z,7.95
2018-07-13T08:32:46.489Z,7.40
2018-07-13T08:35:16.441Z,7.40
2018-07-13T08:37:45.732Z,6.40
2018-07-13T08:40:14.958Z,6.75
2018-07-13T08:42:44.363Z,7.85
2018-07-13T08:45:13.903Z,6.90
2018-07-13T08:47:43.188Z,7.00
2018-07-13T08:50:12.167Z,7.33
2018-07-13T08:52:41.484Z,6.58
2018-07-13T08:55:13.562Z,7.58
2018-07-13T08:57:44.104Z,6.85
2018-07-13T09:00:13.403Z,6.83
2018-07-13T09:02:42.999Z,7.78
2018-07-13T09:05:12.301Z,8.60
2018-07-13T09:07:41.325Z,8.93
2018-07-13T09:10:10.968Z,9.53
2018-07-13T09:12:40.471Z,9.30
2018-07-13T09:15:10.361Z,9.43
2018-07-13T09:17:39.692Z,11.25
2018-07-13T09:20:10.259Z,10.80
2018-07-13T09:22:39.648Z,10.38
2018-07-13T09:25:08.896Z,11.88
2018-07-13T09:27:38.517Z,10.98
2018-07-13T09:30:08.070Z,9.73
2018-07-13T09:32:37.408Z,10.43
2018-07-13T09:35:07.288Z,9.73
2018-07-13T09:37:36.711Z,9.95
2018-07-13T09:40:06.021Z,8.75
2018-07-13T09:42:36.111Z,10.45
2018-07-13T09:45:05.391Z,10.58
2018-07-13T09:47:35.168Z,9.53
2018-07-13T09:50:04.601Z,9.58
2018-07-13T09:52:33.834Z,10.40
2018-07-13T09:55:03.532Z,10.50
2018-07-13T09:57:32.856Z,9.65
2018-07-13T10:00:02.897Z,10.28
2018-07-13T10:02:32.371Z,11.57
2018-07-13T10:05:01.990Z,10.48
2018-07-13T10:07:30.971Z,10.30
2018-07-13T10:10:00.324Z,10.48
2018-07-13T10:12:30.170Z,9.88
2018-07-13T10:15:00.090Z,8.80
2018-07-13T10:17:29.086Z,9.08
2018-07-13T10:19:58.367Z,8.75
2018-07-13T10:22:28.396Z,9.45
2018-07-13T10:24:58.627Z,8.68
2018-07-13T10:27:29.687Z,9.68
2018-07-13T10:29:59.252Z,10.45
2018-07-13T10:32:28.569Z,9.00
2018-07-13T10:34:58.224Z,9.10
2018-07-13T10:37:28.112Z,11.48
2018-07-13T10:39:57.450Z,10.00
2018-07-13T10:42:26.664Z,10.10
2018-07-13T10:44:55.720Z,9.35
2018-07-13T10:47:24.977Z,8.08
2018-07-13T10:49:54.289Z,8.25
2018-07-13T10:52:23.898Z,8.25
2018-07-13T10:54:53.196Z,8.38
2018-07-13T10:57:22.600Z,8.05
2018-07-13T10:59:52.736Z,7.90
2018-07-13T11:02:22.170Z,7.90
2018-07-13T11:04:51.935Z,8.05
2018-07-13T11:07:21.541Z,7.55
2018-07-13T11:09:50.842Z,7.58
2018-07-13T11:12:20.449Z,7.35
2018-07-13T11:14:50.057Z,7.62
2018-07-13T11:17:19.665Z,8.18
2018-07-13T11:19:48.966Z,7.20
2018-07-13T11:22:17.929Z,7.45
2018-07-13T11:24:48.796Z,7.70
2018-07-13T11:27:17.756Z,7.62
2018-07-13T11:29:46.775Z,7.40
2018-07-13T11:32:15.748Z,8.10
2018-07-13T11:34:44.732Z,8.23
2018-07-13T11:37:13.932Z,8.28
2018-07-13T11:39:43.061Z,7.35
2018-07-13T11:42:12.028Z,7.25
2018-07-13T11:44:41.336Z,7.03
2018-07-13T11:47:10.660Z,7.37
2018-07-13T11:49:40.264Z,7.10
2018-07-13T11:52:09.607Z,6.90
2018-07-13T11:54:38.842Z,7.40
2018-07-13T11:57:08.137Z,7.30
2018-07-13T11:59:37.773Z,7.92
2018-07-13T12:02:07.381Z,7.17
2018-07-13T12:04:36.918Z,7.10
2018-07-13T12:07:06.113Z,6.83
2018-07-13T12:09:35.252Z,7.35
2018-07-13T12:12:05.197Z,6.12
2018-07-13T12:14:34.192Z,6.20
2018-07-13T12:17:03.798Z,7.28
2018-07-13T12:19:32.760Z,7.05
2018-07-13T12:22:01.800Z,6.22
2018-07-13T12:24:31.091Z,5.67
2018-07-13T12:27:01.353Z,6.20
2018-07-13T12:29:30.568Z,7.20
2018-07-13T12:32:00.216Z,6.42
2018-07-13T12:34:29.206Z,6.25
2018-07-13T12:36:58.815Z,6.83
2018-07-13T12:39:28.468Z,6.25
2018-07-13T12:41:57.679Z,6.47
2018-07-13T12:44:26.984Z,5.80
2018-07-13T12:46:56.632Z,6.03
2018-07-13T12:49:26.239Z,5.55
2018-07-13T12:51:55.297Z,5.22
2018-07-13T12:54:24.499Z,5.53
2018-07-13T12:56:53.787Z,6.10
2018-07-13T12:59:23.145Z,5.67
2018-07-13T13:01:52.890Z,6.05
2018-07-13T13:04:22.970Z,5.90
2018-07-13T13:06:51.976Z,6.53
2018-07-13T13:09:21.111Z,6.53
2018-07-13T13:11:51.175Z,6.40
2018-07-13T13:14:20.831Z,5.87
2018-07-13T13:16:49.734Z,5.80
2018-07-13T13:19:26.625Z,5.92
2018-07-13T13:21:56.136Z,6.47
2018-07-13T13:24:25.364Z,6.10
2018-07-13T13:26:54.655Z,6.87
2018-07-13T13:29:24.302Z,6.05
2018-07-13T13:31:53.877Z,6.35
2018-07-13T13:34:23.187Z,6.45
2018-07-13T13:36:52.543Z,7.10
2018-07-13T13:39:21.775Z,6.17
2018-07-13T13:41:51.160Z,6.65
2018-07-13T13:44:20.570Z,6.30
2018-07-13T13:46:50.127Z,5.67
2018-07-13T13:49:19.592Z,5.78
2018-07-13T13:51:49.505Z,6.05
2018-07-13T13:54:18.460Z,5.95
2018-07-13T13:56:47.831Z,5.78
2018-07-13T13:59:17.767Z,5.80
2018-07-13T14:01:46.813Z,6.45
2018-07-13T14:04:16.465Z,6.22
2018-07-13T14:06:45.683Z,6.28
2018-07-13T14:09:15.165Z,5.60
2018-07-13T14:11:45.134Z,6.35
2018-07-13T14:14:14.748Z,5.80
2018-07-13T14:16:44.023Z,5.97
2018-07-13T14:19:13.032Z,6.08
2018-07-13T14:21:41.985Z,6.67
2018-07-13T14:24:12.250Z,6.25
2018-07-13T14:26:41.548Z,6.03
2018-07-13T14:29:10.805Z,5.75
2018-07-13T14:31:40.769Z,6.12
2018-07-13T14:34:10.683Z,6.05
2018-07-13T14:36:40.127Z,5.85
2018-07-13T14:39:10.512Z,5.10
2018-07-13T14:41:40.121Z,5.40
2018-07-13T14:44:09.420Z,6.15
2018-07-13T14:46:38.669Z,5.45
2018-07-13T14:49:08.906Z,5.67
2018-07-13T14:51:37.920Z,5.20
2018-07-13T14:54:07.549Z,5.17
2018-07-13T14:56:37.915Z,5.15
2018-07-13T14:59:07.089Z,5.45
2018-07-13T15:01:36.678Z,5.83
2018-07-13T15:04:06.153Z,6.00
2018-07-13T15:06:35.649Z,5.42
2018-07-13T15:09:06.544Z,4.85
2018-07-13T15:11:36.291Z,5.47
2018-07-13T15:14:05.599Z,5.33
2018-07-13T15:16:35.551Z,4.83
2018-07-13T15:19:05.355Z,5.87
2018-07-13T15:21:35.381Z,5.47
2018-07-13T15:24:05.371Z,5.12
2018-07-13T15:26:34.647Z,4.55
2018-07-13T15:29:05.081Z,5.40
2018-07-13T15:31:34.608Z,4.85
2018-07-13T15:34:04.675Z,4.90
2018-07-13T15:36:34.658Z,5.35
2018-07-13T15:39:04.383Z,4.80
2018-07-13T15:41:33.489Z,4.78
2018-07-13T15:44:02.773Z,4.60
2018-07-13T15:46:32.379Z,5.05
2018-07-13T15:49:02.007Z,4.83
2018-07-13T15:51:31.119Z,4.42
2018-07-13T15:54:00.599Z,5.10
2018-07-13T15:56:29.897Z,5.33
2018-07-13T15:58:59.361Z,4.62
2018-07-13T16:01:29.718Z,5.45
2018-07-13T16:03:59.340Z,5.17
2018-07-13T16:06:28.399Z,5.30
2018-07-13T16:08:57.618Z,5.47
2018-07-13T16:11:26.583Z,5.00
2018-07-13T16:13:56.220Z,5.12
2018-07-13T16:16:25.683Z,5.25
2018-07-13T16:18:54.821Z,5.03
2018-07-13T16:21:24.741Z,5.65
2018-07-13T16:23:54.346Z,4.80
2018-07-13T16:26:24.020Z,4.50
2018-07-13T16:28:53.201Z,5.90
2018-07-13T16:31:23.096Z,5.35
2018-07-13T16:33:53.755Z,4.50
2018-07-13T16:36:23.655Z,3.98
2018-07-13T16:38:53.527Z,4.08
2018-07-13T16:41:26.123Z,4.45
2018-07-13T16:43:55.199Z,4.17
2018-07-13T16:46:26.781Z,3.60
2018-07-13T16:48:56.738Z,3.87
2018-07-13T16:51:26.347Z,3.98
2018-07-13T16:53:55.780Z,4.28
2018-07-13T16:56:25.124Z,4.90
2018-07-13T16:58:54.695Z,4.30
2018-07-13T17:01:24.308Z,4.28
2018-07-13T17:03:53.571Z,3.98
2018-07-13T17:06:23.211Z,4.92
2018-07-13T17:08:53.012Z,4.70
2018-07-13T17:11:22.573Z,4.62
2018-07-13T17:13:52.203Z,4.75
2018-07-13T17:16:21.683Z,4.62
2018-07-13T17:18:50.739Z,3.87
2018-07-13T17:21:19.984Z,4.45
2018-07-13T17:23:48.935Z,5.60
2018-07-13T17:26:18.591Z,4.53
2018-07-13T17:28:47.979Z,5.00
2018-07-13T17:31:17.580Z,4.72
2018-07-13T17:33:47.015Z,5.58
2018-07-13T17:36:16.965Z,5.30
2018-07-13T17:38:46.263Z,5.55
2018-07-13T17:41:15.582Z,5.17
2018-07-13T17:43:45.013Z,5.60
2018-07-13T17:46:14.468Z,4.60
2018-07-13T17:48:43.756Z,5.15
2018-07-13T17:51:13.546Z,5.60
2018-07-13T17:53:43.603Z,5.15
2018-07-13T17:56:13.208Z,5.00
2018-07-13T17:58:42.656Z,4.50
2018-07-13T18:01:12.116Z,4.80
2018-07-13T18:03:41.111Z,8.23
2018-07-13T18:06:10.841Z,6.10
2018-07-13T18:08:40.060Z,7.53
2018-07-13T18:11:09.319Z,9.18
2018-07-13T18:13:38.900Z,6.22
2018-07-13T18:16:08.371Z,5.65
2018-07-13T18:18:38.144Z,6.50
2018-07-13T18:21:07.812Z,9.63
2018-07-13T18:23:37.535Z,6.60
2018-07-13T18:26:06.650Z,5.72
2018-07-13T18:28:35.627Z,11.90
2018-07-13T18:31:04.688Z,5.87
2018-07-13T18:33:34.171Z,8.90
2018-07-13T18:36:03.643Z,9.08
2018-07-13T18:38:33.182Z,12.30
2018-07-13T18:41:02.602Z,9.00
2018-07-13T18:43:32.587Z,10.78
2018-07-13T18:46:02.289Z,6.78
2018-07-13T18:48:32.118Z,6.53
2018-07-13T18:51:01.811Z,8.68
2018-07-13T18:53:31.418Z,6.22
2018-07-13T18:56:01.026Z,7.00
2018-07-13T18:58:30.326Z,6.22
2018-07-13T19:00:59.859Z,6.47
2018-07-13T19:03:29.547Z,8.08
2018-07-13T19:05:58.817Z,6.58
2018-07-13T19:08:28.145Z,6.50
2018-07-13T19:10:57.139Z,5.50
2018-07-13T19:13:27.430Z,7.78
2018-07-13T19:15:56.623Z,6.83
2018-07-13T19:18:26.267Z,5.40
2018-07-13T19:20:56.376Z,6.65
2018-07-13T19:23:27.158Z,6.25
2018-07-13T19:25:56.738Z,7.17
2018-07-13T19:28:25.887Z,7.10
2018-07-13T19:30:56.041Z,6.72
2018-07-13T19:33:25.806Z,6.15
2018-07-13T19:35:55.555Z,7.10
2018-07-13T19:38:25.280Z,7.17
2018-07-13T19:40:55.331Z,7.72
2018-07-13T19:43:32.172Z,7.85
2018-07-13T19:46:02.105Z,7.92
2018-07-13T19:48:32.491Z,8.25
2018-07-13T19:51:01.944Z,7.80
2018-07-13T19:53:31.248Z,7.72
2018-07-13T19:56:00.585Z,6.47
2018-07-13T19:58:30.134Z,6.78
2018-07-13T20:00:59.424Z,5.85
2018-07-13T20:03:29.348Z,5.45
2018-07-13T20:05:58.716Z,6.17
2018-07-13T20:08:27.688Z,5.45
2018-07-13T20:10:57.018Z,6.08
2018-07-13T20:13:26.490Z,5.80
2018-07-13T20:15:56.463Z,5.80
2018-07-13T20:18:26.451Z,5.70
2018-07-13T20:20:55.985Z,6.00
2018-07-13T20:23:25.393Z,6.28
2018-07-13T20:25:54.889Z,5.70
2018-07-13T20:28:30.411Z,5.85
2018-07-13T20:31:01.375Z,6.28
2018-07-13T20:33:31.056Z,6.62
2018-07-13T20:36:00.471Z,6.25
2018-07-13T20:38:31.189Z,6.40
2018-07-13T20:41:01.469Z,6.35
2018-07-13T20:43:31.729Z,8.40
2018-07-13T20:46:01.131Z,7.37
2018-07-13T20:48:30.890Z,7.47
2018-07-13T20:51:00.272Z,7.22
2018-07-13T20:53:29.320Z,7.93
2018-07-13T20:55:59.351Z,7.70
2018-07-13T20:58:28.701Z,6.55
2018-07-13T21:00:57.979Z,19.55
2018-07-13T21:03:27.848Z,16.30
2018-07-13T21:05:57.166Z,8.03
2018-07-13T21:08:27.131Z,7.50
2018-07-13T21:10:57.051Z,6.22
2018-07-13T21:13:27.023Z,5.55
2018-07-13T21:16:00.592Z,6.37
2018-07-13T21:18:30.477Z,5.17
2018-07-13T21:20:59.568Z,5.67
2018-07-13T21:23:29.310Z,5.60
2018-07-13T21:25:58.686Z,5.65
2018-07-13T21:28:28.833Z,5.57
2018-07-13T21:30:58.825Z,5.20
2018-07-13T21:33:29.265Z,5.22
2018-07-13T21:35:58.346Z,5.20
2018-07-13T21:38:28.447Z,5.00
2018-07-13T21:40:59.409Z,5.50
2018-07-13T21:43:30.149Z,5.20
2018-07-13T21:45:59.842Z,4.80
2018-07-13T21:48:29.294Z,4.90
2018-07-13T21:50:59.414Z,5.62
2018-07-13T21:53:28.985Z,5.65
2018-07-13T21:55:57.942Z,6.13
2018-07-13T21:58:27.273Z,5.12
2018-07-13T22:00:56.880Z,5.00
2018-07-13T22:03:26.104Z,4.50
2018-07-13T22:05:55.494Z,5.30
2018-07-13T22:08:25.125Z,4.67
2018-07-13T22:10:54.698Z,3.37
2018-07-13T22:13:23.925Z,4.05
2018-07-13T22:15:53.604Z,3.25
2018-07-13T22:18:23.056Z,3.50
2018-07-13T22:20:52.829Z,3.37
2018-07-13T22:23:22.163Z,3.65
2018-07-13T22:25:52.354Z,3.80
2018-07-13T22:28:21.961Z,3.77
2018-07-13T22:30:51.610Z,3.83
2018-07-13T22:33:21.204Z,4.43
2018-07-13T22:35:51.771Z,3.77
2018-07-13T22:38:21.662Z,4.57
2018-07-13T22:40:51.211Z,3.70
2018-07-13T22:43:21.016Z,3.87
2018-07-13T22:45:52.041Z,3.67
2018-07-13T22:48:21.884Z,3.73
2018-07-13T22:50:51.319Z,3.40
2018-07-13T22:53:21.409Z,3.05
2018-07-13T22:55:52.698Z,4.05
2018-07-13T22:58:21.902Z,3.42
2018-07-13T23:00:51.459Z,3.87
2018-07-13T23:03:21.065Z,3.70
2018-07-13T23:05:50.397Z,4.30
2018-07-13T23:08:19.464Z,3.72
2018-07-13T23:10:48.972Z,3.50
2018-07-13T23:13:17.942Z,3.50
2018-07-13T23:15:47.407Z,3.60
2018-07-13T23:18:16.703Z,3.40
2018-07-13T23:20:46.398Z,3.90
2018-07-13T23:23:16.017Z,3.77
2018-07-13T23:25:45.115Z,3.70
2018-07-13T23:28:14.023Z,3.17
2018-07-13T23:30:43.049Z,3.50
2018-07-13T23:33:12.740Z,4.42
2018-07-13T23:35:42.656Z,3.63
2018-07-13T23:38:12.992Z,4.33
2018-07-13T23:40:42.736Z,4.07
2018-07-13T23:43:12.411Z,4.08
2018-07-13T23:45:42.021Z,4.20
2018-07-13T23:48:12.310Z,4.35
2018-07-13T23:50:41.836Z,4.20
2018-07-13T23:53:11.692Z,3.93
2018-07-13T23:55:41.367Z,4.22
2018-07-13T23:58:11.519Z,3.97
